Time;durP1;ratioP1;P1;durP2;ratioP2;P2;SDS_P1;SDS_P2;PMS_P1;PMS_P2;Temp;Humidity;BMP_temperature;BMP_pressure;BME280_temperature;BME280_humidity;BME280_pressure;Samples;Min_cycle;Max_cycle;Signal;HPM_P1;HPM_P2
2022/03/19 00:02:24;;;;;;;12.05;2.78;;;;;;;;;;4994500;28;20128;-75
2022/03/19 00:04:50;;;;;;;12.38;2.63;;;;;;;;;;5029267;28;20045;-76
2022/03/19 00:07:16;;;;;;;18.48;2.83;;;;;;;;;;5009973;28;20045;-75
2022/03/19 00:09:43;;;;;;;15.63;2.67;;;;;;;;;;5029043;28;20384;-76
2022/03/19 00:12:14;;;;;;;15.43;2.80;;;;;;;;;;5010974;28;20102;-75
2022/03/19 00:14:41;;;;;;;11.20;2.38;;;;;;;;;;5009250;28;20076;-76
2022/03/19 00:17:08;;;;;;;12.88;2.63;;;;;;;;;;5028717;28;20394;-75
2022/03/19 00:19:34;;;;;;;12.65;2.00;;;;;;;;;;4994256;28;20124;-75
2022/03/19 00:22:00;;;;;;;12.43;2.53;;;;;;;;;;5011596;28;20469;-76
2022/03/19 00:24:26;;;;;;;12.25;2.42;;;;;;;;;;5010930;28;20041;-76
2022/03/19 00:26:52;;;;;;;12.57;2.85;;;;;;;;;;5010832;28;20045;-75
2022/03/19 00:29:18;;;;;;;16.92;3.10;;;;;;;;;;5011149;28;20516;-75
2022/03/19 00:31:44;;;;;;;15.13;3.00;;;;;;;;;;5028561;28;20448;-75
2022/03/19 00:34:10;;;;;;;15.88;3.25;;;;;;;;;;5010957;28;20048;-76
2022/03/19 00:36:36;;;;;;;13.85;2.55;;;;;;;;;;5028442;28;20102;-76
2022/03/19 00:39:03;;;;;;;11.07;2.70;;;;;;;;;;5010829;28;20037;-76
2022/03/19 00:41:29;;;;;;;14.55;2.60;;;;;;;;;;5010654;28;20042;-75
2022/03/19 00:43:55;;;;;;;19.08;3.05;;;;;;;;;;5028695;28;20553;-76
2022/03/19 00:46:21;;;;;;;13.82;2.80;;;;;;;;;;5027761;28;20077;-76
2022/03/19 00:48:48;;;;;;;11.52;2.85;;;;;;;;;;4994129;28;20046;-76
2022/03/19 00:51:14;;;;;;;14.23;2.83;;;;;;;;;;5018895;28;20138;-76
2022/03/19 00:53:40;;;;;;;17.13;3.03;;;;;;;;;;5010530;28;20440;-76
2022/03/19 00:56:06;;;;;;;8.85;2.40;;;;;;;;;;4994487;28;20034;-75
2022/03/19 00:58:32;;;;;;;12.82;2.40;;;;;;;;;;5027941;28;20050;-76
2022/03/19 01:00:58;;;;;;;11.82;2.67;;;;;;;;;;5010495;28;20060;-76
2022/03/19 01:03:24;;;;;;;11.95;2.72;;;;;;;;;;5010171;28;20072;-76
2022/03/19 01:05:50;;;;;;;10.65;3.38;;;;;;;;;;5011032;28;20375;-77
2022/03/19 01:08:16;;;;;;;13.27;2.80;;;;;;;;;;5028311;28;20155;-76
2022/03/19 01:10:42;;;;;;;19.33;3.45;;;;;;;;;;5010597;28;20462;-76
2022/03/19 01:13:09;;;;;;;15.05;2.80;;;;;;;;;;5010520;28;20541;-77
2022/03/19 01:15:35;;;;;;;12.77;2.90;;;;;;;;;;5010646;28;20525;-76
2022/03/19 01:18:02;;;;;;;18.70;3.10;;;;;;;;;;5009937;28;20049;-76
2022/03/19 01:20:29;;;;;;;11.85;3.20;;;;;;;;;;5010127;28;20069;-76
2022/03/19 01:22:55;;;;;;;15.85;3.65;;;;;;;;;;5010242;28;20064;-76
2022/03/19 01:25:21;;;;;;;10.25;2.80;;;;;;;;;;5027961;28;20080;-76
2022/03/19 01:27:48;;;;;;;12.73;3.33;;;;;;;;;;5010238;28;20539;-76
2022/03/19 01:30:19;;;;;;;14.02;3.60;;;;;;;;;;5010207;28;20045;-76
2022/03/19 01:32:46;;;;;;;10.38;3.10;;;;;;;;;;5009509;28;20056;-76
2022/03/19 01:35:13;;;;;;;14.40;3.15;;;;;;;;;;5009689;28;20505;-75
2022/03/19 01:37:40;;;;;;;16.70;3.42;;;;;;;;;;5027590;28;20053;-75
2022/03/19 01:40:07;;;;;;;13.70;2.92;;;;;;;;;;5027644;28;20061;-75
2022/03/19 01:42:34;;;;;;;12.32;2.67;;;;;;;;;;5026876;28;20072;-76
2022/03/19 01:45:01;;;;;;;13.43;3.05;;;;;;;;;;4988065;28;20045;-76
2022/03/19 01:47:28;;;;;;;13.32;2.97;;;;;;;;;;5009382;28;20048;-75
2022/03/19 01:49:55;;;;;;;17.98;3.22;;;;;;;;;;4993722;28;20038;-76
2022/03/19 01:52:21;;;;;;;14.63;2.97;;;;;;;;;;5009820;28;20083;-76
2022/03/19 01:54:48;;;;;;;16.10;3.05;;;;;;;;;;5009969;28;20037;-78
2022/03/19 01:57:16;;;;;;;13.43;3.10;;;;;;;;;;5009879;28;20136;-78
2022/03/19 01:59:43;;;;;;;11.27;3.30;;;;;;;;;;5009840;28;20640;-78
2022/03/19 02:02:10;;;;;;;12.18;2.88;;;;;;;;;;5010141;28;20033;-78
2022/03/19 02:04:37;;;;;;;12.70;2.90;;;;;;;;;;5010029;28;20046;-78
2022/03/19 02:07:04;;;;;;;15.63;3.22;;;;;;;;;;5009995;28;20049;-78
2022/03/19 02:09:30;;;;;;;11.02;2.85;;;;;;;;;;4993099;28;20072;-78
2022/03/19 02:11:56;;;;;;;11.52;2.70;;;;;;;;;;5009763;28;20037;-78
2022/03/19 02:14:22;;;;;;;14.30;3.00;;;;;;;;;;5009672;28;20551;-78
2022/03/19 02:16:49;;;;;;;12.57;2.88;;;;;;;;;;4993708;28;20098;-78
2022/03/19 02:19:15;;;;;;;14.60;2.85;;;;;;;;;;5009573;28;20422;-78
2022/03/19 02:21:46;;;;;;;20.20;3.97;;;;;;;;;;5027028;28;20041;-78
2022/03/19 02:26:57;;;;;;;16.30;3.38;;;;;;;;;;5009797;28;20363;-79
2022/03/19 02:29:24;;;;;;;14.82;3.08;;;;;;;;;;5008425;28;20033;-79
2022/03/19 02:31:51;;;;;;;14.15;3.05;;;;;;;;;;5009556;28;20092;-78
2022/03/19 02:34:17;;;;;;;15.40;3.17;;;;;;;;;;5027644;28;20034;-78
2022/03/19 02:36:43;;;;;;;13.25;3.20;;;;;;;;;;4993793;28;20041;-78
2022/03/19 02:39:10;;;;;;;14.60;3.70;;;;;;;;;;5010021;28;20045;-79
2022/03/19 02:41:40;;;;;;;13.65;3.55;;;;;;;;;;5009756;28;20046;-78
2022/03/19 02:44:06;;;;;;;11.68;3.00;;;;;;;;;;4993196;28;20070;-78
2022/03/19 02:46:52;;;;;;;17.40;3.55;;;;;;;;;;5009386;28;20042;-79
2022/03/19 02:49:19;;;;;;;13.30;3.00;;;;;;;;;;5007977;28;20036;-78
2022/03/19 02:51:46;;;;;;;17.20;3.60;;;;;;;;;;5009015;28;20093;-78
2022/03/19 02:54:13;;;;;;;15.98;4.05;;;;;;;;;;5026853;28;20086;-78
2022/03/19 02:56:40;;;;;;;14.55;3.38;;;;;;;;;;5026483;28;20100;-78
2022/03/19 02:59:07;;;;;;;15.95;3.70;;;;;;;;;;5008716;28;20049;-76
2022/03/19 03:01:33;;;;;;;17.10;3.72;;;;;;;;;;5006422;28;20046;-75
2022/03/19 03:03:59;;;;;;;10.57;3.42;;;;;;;;;;5007625;28;20094;-78
2022/03/19 03:06:25;;;;;;;19.95;3.45;;;;;;;;;;5025598;28;20038;-76
2022/03/19 03:08:51;;;;;;;17.90;3.83;;;;;;;;;;5026624;28;20041;-75
2022/03/19 03:11:17;;;;;;;13.55;4.13;;;;;;;;;;4992810;28;20052;-75
2022/03/19 03:13:44;;;;;;;14.90;3.20;;;;;;;;;;5008610;28;20464;-76
2022/03/19 03:16:10;;;;;;;15.75;3.70;;;;;;;;;;4992108;28;20037;-75
2022/03/19 03:18:37;;;;;;;15.45;3.35;;;;;;;;;;5008541;28;20048;-75
2022/03/19 03:21:03;;;;;;;16.85;3.72;;;;;;;;;;5008759;28;20414;-75
2022/03/19 03:23:31;;;;;;;14.40;3.65;;;;;;;;;;5025938;28;20077;-76
2022/03/19 03:25:57;;;;;;;17.20;3.20;;;;;;;;;;5008901;28;20498;-75
2022/03/19 03:28:24;;;;;;;13.55;3.70;;;;;;;;;;5008516;28;20053;-76
2022/03/19 03:30:50;;;;;;;13.23;3.42;;;;;;;;;;4991805;28;20041;-76
2022/03/19 03:33:16;;;;;;;15.70;3.83;;;;;;;;;;5008489;28;20121;-75
2022/03/19 03:35:42;;;;;;;12.57;4.07;;;;;;;;;;5007997;28;20094;-76
2022/03/19 03:38:08;;;;;;;14.57;4.00;;;;;;;;;;5026057;28;20063;-76
2022/03/19 03:40:34;;;;;;;15.63;3.67;;;;;;;;;;5026083;28;20474;-76
2022/03/19 03:43:00;;;;;;;15.30;4.13;;;;;;;;;;5011888;28;20048;-75
2022/03/19 03:45:30;;;;;;;14.57;3.55;;;;;;;;;;5029306;28;20037;-75
2022/03/19 03:47:56;;;;;;;17.60;3.85;;;;;;;;;;5027553;28;20049;-76
2022/03/19 03:50:22;;;;;;;16.60;3.95;;;;;;;;;;5011280;28;20049;-75
2022/03/19 03:52:50;;;;;;;16.98;3.80;;;;;;;;;;5028267;28;20050;-76
2022/03/19 03:55:16;;;;;;;14.30;4.05;;;;;;;;;;5028968;28;20071;-76
2022/03/19 03:57:42;;;;;;;12.25;4.13;;;;;;;;;;5011222;28;20164;-76
2022/03/19 04:00:08;;;;;;;10.75;3.65;;;;;;;;;;5011177;28;20061;-75
2022/03/19 04:02:35;;;;;;;14.65;3.33;;;;;;;;;;5011332;28;20058;-76
2022/03/19 04:05:01;;;;;;;17.70;3.85;;;;;;;;;;5011464;28;20049;-78
2022/03/19 04:07:27;;;;;;;16.63;4.00;;;;;;;;;;5011231;28;20051;-75
2022/03/19 04:09:54;;;;;;;11.80;3.50;;;;;;;;;;5028663;28;20037;-76
2022/03/19 04:12:22;;;;;;;14.82;3.70;;;;;;;;;;4994641;28;20081;-76
2022/03/19 04:14:48;;;;;;;19.02;4.38;;;;;;;;;;5011010;28;20049;-77
2022/03/19 04:17:14;;;;;;;17.48;4.03;;;;;;;;;;5011335;28;20045;-78
2022/03/19 04:19:40;;;;;;;15.95;4.47;;;;;;;;;;5028639;28;20494;-77
2022/03/19 04:22:06;;;;;;;10.80;3.47;;;;;;;;;;5010624;28;20045;-76
2022/03/19 04:24:32;;;;;;;17.98;4.15;;;;;;;;;;5010957;28;20065;-76
2022/03/19 04:26:59;;;;;;;19.63;4.20;;;;;;;;;;4994866;28;20038;-76
2022/03/19 04:29:25;;;;;;;22.83;4.38;;;;;;;;;;5011181;28;20042;-76
2022/03/19 04:31:51;;;;;;;12.45;4.32;;;;;;;;;;5011306;28;20034;-76
2022/03/19 04:34:17;;;;;;;14.18;3.80;;;;;;;;;;5010869;28;20581;-76
2022/03/19 04:36:43;;;;;;;18.17;4.70;;;;;;;;;;5010755;28;20033;-76
2022/03/19 04:39:10;;;;;;;18.27;4.15;;;;;;;;;;5011009;28;20048;-76
2022/03/19 04:41:37;;;;;;;14.75;4.05;;;;;;;;;;5010664;28;20077;-76
2022/03/19 04:44:05;;;;;;;16.70;4.00;;;;;;;;;;5010693;28;20049;-77
2022/03/19 04:46:31;;;;;;;14.93;4.60;;;;;;;;;;5010240;28;20125;-76
2022/03/19 04:48:57;;;;;;;16.70;5.32;;;;;;;;;;5028482;28;20037;-76
2022/03/19 04:51:28;;;;;;;15.23;4.57;;;;;;;;;;5028073;28;20116;-76
2022/03/19 04:53:54;;;;;;;16.15;5.05;;;;;;;;;;5007619;28;20045;-76
2022/03/19 04:56:23;;;;;;;14.05;3.90;;;;;;;;;;5010731;28;20044;-76
2022/03/19 04:58:50;;;;;;;18.92;4.45;;;;;;;;;;5038259;28;20131;-76
2022/03/19 05:01:17;;;;;;;15.98;4.82;;;;;;;;;;5085140;28;20048;-75
2022/03/19 05:03:43;;;;;;;13.93;4.38;;;;;;;;;;5087309;28;20043;-76
2022/03/19 05:06:09;;;;;;;15.82;5.32;;;;;;;;;;5075045;28;20036;-76
2022/03/19 05:08:35;;;;;;;13.52;4.65;;;;;;;;;;5078366;28;20085;-76
2022/03/19 05:11:13;;;;;;;11.32;4.13;;;;;;;;;;5071523;28;20068;-76
2022/03/19 05:13:48;;;;;;;15.02;4.57;;;;;;;;;;5072056;28;20141;-75
2022/03/19 05:16:15;;;;;;;12.13;4.10;;;;;;;;;;5087298;28;20040;-76
2022/03/19 05:18:41;;;;;;;13.40;4.85;;;;;;;;;;5082094;28;20447;-76
2022/03/19 05:21:08;;;;;;;16.95;5.38;;;;;;;;;;5071388;28;20039;-76
2022/03/19 05:23:34;;;;;;;15.88;4.47;;;;;;;;;;5088273;28;20126;-76
2022/03/19 05:26:00;;;;;;;14.38;4.55;;;;;;;;;;5091286;28;20493;-76
2022/03/19 05:28:27;;;;;;;15.85;4.65;;;;;;;;;;5090022;28;20044;-78
2022/03/19 05:31:01;;;;;;;15.30;4.35;;;;;;;;;;5089974;28;20048;-78
2022/03/19 05:36:24;;;;;;;14.73;4.40;;;;;;;;;;5036120;28;20084;-79
2022/03/19 05:38:50;;;;;;;15.80;4.72;;;;;;;;;;5073596;28;20040;-79
2022/03/19 05:41:16;;;;;;;15.10;4.20;;;;;;;;;;5090785;28;20063;-78
2022/03/19 05:43:43;;;;;;;15.18;4.10;;;;;;;;;;5091047;28;20050;-78
2022/03/19 05:46:09;;;;;;;13.20;3.92;;;;;;;;;;5090363;28;20066;-78
2022/03/19 05:48:35;;;;;;;13.38;4.13;;;;;;;;;;5088678;28;20429;-78
2022/03/19 05:51:01;;;;;;;16.33;3.85;;;;;;;;;;5070584;28;20393;-78
2022/03/19 05:53:28;;;;;;;13.80;3.80;;;;;;;;;;5075241;28;20040;-78
2022/03/19 05:55:54;;;;;;;15.13;3.92;;;;;;;;;;5089462;28;20036;-77
2022/03/19 05:58:20;;;;;;;12.82;3.55;;;;;;;;;;5071441;28;20043;-78
2022/03/19 06:00:47;;;;;;;9.80;3.72;;;;;;;;;;4987181;28;20058;-77
2022/03/19 06:03:13;;;;;;;12.68;3.90;;;;;;;;;;4987192;28;20045;-79
2022/03/19 06:05:39;;;;;;;14.00;3.65;;;;;;;;;;4988403;28;20042;-78
2022/03/19 06:08:05;;;;;;;12.02;3.63;;;;;;;;;;4971471;28;20100;-78
2022/03/19 06:10:35;;;;;;;12.75;3.67;;;;;;;;;;4987748;28;20527;-78
2022/03/19 06:13:02;;;;;;;10.98;3.50;;;;;;;;;;4987476;28;20129;-78
2022/03/19 06:15:28;;;;;;;14.80;3.38;;;;;;;;;;4988247;28;20050;-77
2022/03/19 06:17:54;;;;;;;13.35;3.55;;;;;;;;;;4971093;28;20042;-78
2022/03/19 06:20:22;;;;;;;13.25;3.38;;;;;;;;;;4988359;28;20081;-79
2022/03/19 06:22:49;;;;;;;13.48;3.42;;;;;;;;;;4986820;28;20042;-79
2022/03/19 06:25:15;;;;;;;16.00;3.15;;;;;;;;;;4988096;28;20082;-78
2022/03/19 06:27:41;;;;;;;14.18;3.55;;;;;;;;;;4970686;28;20125;-79
2022/03/19 06:30:08;;;;;;;13.15;3.25;;;;;;;;;;4987180;28;20117;-78
2022/03/19 06:32:37;;;;;;;14.45;3.50;;;;;;;;;;4986652;28;20495;-76
2022/03/19 06:35:03;;;;;;;12.82;3.33;;;;;;;;;;4986678;28;20083;-78
2022/03/19 06:37:29;;;;;;;13.70;3.75;;;;;;;;;;4986538;28;20042;-79
2022/03/19 06:39:57;;;;;;;9.55;2.92;;;;;;;;;;4986664;28;20466;-77
2022/03/19 06:42:23;;;;;;;10.15;3.08;;;;;;;;;;4987417;28;20039;-77
2022/03/19 06:44:50;;;;;;;9.55;3.40;;;;;;;;;;4986484;28;20065;-79
2022/03/19 06:47:19;;;;;;;14.40;3.10;;;;;;;;;;4988015;28;20034;-76
2022/03/19 06:49:45;;;;;;;16.25;3.67;;;;;;;;;;4987576;28;20173;-75
2022/03/19 06:52:11;;;;;;;13.80;3.47;;;;;;;;;;4987399;28;20039;-75
2022/03/19 06:54:37;;;;;;;12.82;3.10;;;;;;;;;;4987378;28;20492;-78
2022/03/19 06:57:03;;;;;;;9.57;3.00;;;;;;;;;;4970254;28;20042;-77
2022/03/19 06:59:31;;;;;;;9.82;3.42;;;;;;;;;;4985675;28;20137;-76
2022/03/19 07:01:57;;;;;;;11.07;3.25;;;;;;;;;;4986576;28;20570;-76
2022/03/19 07:04:23;;;;;;;10.77;3.45;;;;;;;;;;4985834;28;20042;-77
2022/03/19 07:06:50;;;;;;;7.93;3.13;;;;;;;;;;4969461;28;20057;-76
2022/03/19 07:09:16;;;;;;;11.27;3.22;;;;;;;;;;4987034;28;20038;-76
2022/03/19 07:11:42;;;;;;;10.15;2.75;;;;;;;;;;4986722;28;20408;-77
2022/03/19 07:14:08;;;;;;;13.30;2.97;;;;;;;;;;4954047;28;20107;-76
2022/03/19 07:16:34;;;;;;;11.10;3.30;;;;;;;;;;4987361;28;20125;-75
2022/03/19 07:19:00;;;;;;;10.10;3.10;;;;;;;;;;4989364;28;20078;-75
2022/03/19 07:21:26;;;;;;;11.60;3.15;;;;;;;;;;4973086;28;20133;-75
2022/03/19 07:23:53;;;;;;;13.63;3.90;;;;;;;;;;4990333;28;20042;-76
2022/03/19 07:26:19;;;;;;;9.05;2.97;;;;;;;;;;4989121;28;20575;-76
2022/03/19 07:28:45;;;;;;;12.63;3.50;;;;;;;;;;4990123;28;20331;-76
2022/03/19 07:31:11;;;;;;;10.38;3.55;;;;;;;;;;4989756;28;20072;-77
2022/03/19 07:33:37;;;;;;;12.95;3.42;;;;;;;;;;4988787;28;20050;-75
2022/03/19 07:36:04;;;;;;;12.88;3.67;;;;;;;;;;4972865;28;20034;-78
2022/03/19 07:38:31;;;;;;;14.02;3.20;;;;;;;;;;4986568;28;20041;-77
2022/03/19 07:43:43;;;;;;;11.75;3.47;;;;;;;;;;4989956;28;20042;-75
2022/03/19 07:46:09;;;;;;;13.23;4.32;;;;;;;;;;4972163;28;20050;-76
2022/03/19 07:48:35;;;;;;;11.70;3.72;;;;;;;;;;4988787;28;20057;-77
2022/03/19 07:51:01;;;;;;;10.65;3.35;;;;;;;;;;4988994;28;20125;-77
2022/03/19 07:53:27;;;;;;;12.40;3.80;;;;;;;;;;4988215;28;20035;-76
2022/03/19 07:55:54;;;;;;;10.70;3.33;;;;;;;;;;4988914;28;20044;-77
2022/03/19 07:58:21;;;;;;;13.90;3.90;;;;;;;;;;4988154;28;20048;-75
2022/03/19 08:00:47;;;;;;;10.77;3.72;;;;;;;;;;5089552;28;20097;-77
2022/03/19 08:03:13;;;;;;;11.48;3.80;;;;;;;;;;5090353;28;20044;-77
2022/03/19 08:05:42;;;;;;;15.63;3.75;;;;;;;;;;5090105;28;20111;-75
2022/03/19 08:08:09;;;;;;;10.43;3.15;;;;;;;;;;5091395;28;20043;-76
2022/03/19 08:10:38;;;;;;;12.23;3.55;;;;;;;;;;5091270;28;20047;-76
2022/03/19 08:13:05;;;;;;;12.00;3.40;;;;;;;;;;5087507;28;20036;-76
2022/03/19 08:15:31;;;;;;;11.73;3.63;;;;;;;;;;5090665;28;20036;-77
2022/03/19 08:17:58;;;;;;;10.77;3.10;;;;;;;;;;5090781;28;20103;-76
2022/03/19 08:20:25;;;;;;;10.23;3.10;;;;;;;;;;5077717;28;20039;-76
2022/03/19 08:22:51;;;;;;;10.45;3.35;;;;;;;;;;5088826;28;20043;-75
2022/03/19 08:25:17;;;;;;;9.80;2.85;;;;;;;;;;5090828;28;20040;-76
2022/03/19 08:27:43;;;;;;;11.70;2.90;;;;;;;;;;5070680;28;20036;-75
2022/03/19 08:30:09;;;;;;;13.65;3.83;;;;;;;;;;5088807;28;20401;-75
2022/03/19 08:32:36;;;;;;;15.60;3.78;;;;;;;;;;5090477;28;20119;-78
2022/03/19 08:35:02;;;;;;;9.40;2.60;;;;;;;;;;5089044;28;20040;-77
2022/03/19 08:37:28;;;;;;;10.55;2.90;;;;;;;;;;5071653;28;20119;-77
2022/03/19 08:42:40;;;;;;;10.35;3.25;;;;;;;;;;5087637;28;20056;-76
2022/03/19 08:45:06;;;;;;;10.52;3.20;;;;;;;;;;5074642;28;20400;-78
2022/03/19 08:47:32;;;;;;;9.65;2.65;;;;;;;;;;5090183;28;20032;-76
2022/03/19 08:49:59;;;;;;;14.90;3.97;;;;;;;;;;5081699;28;20036;-76
2022/03/19 08:52:26;;;;;;;10.55;3.35;;;;;;;;;;5079044;28;20097;-76
2022/03/19 08:54:52;;;;;;;11.35;2.75;;;;;;;;;;5090924;28;20514;-83
2022/03/19 08:57:20;;;;;;;9.98;2.58;;;;;;;;;;5074071;28;20378;-78
2022/03/19 08:59:46;;;;;;;13.60;3.42;;;;;;;;;;5062494;28;20565;-76
2022/03/19 09:02:12;;;;;;;12.13;3.03;;;;;;;;;;5071002;28;20071;-76
2022/03/19 09:04:38;;;;;;;9.68;3.10;;;;;;;;;;5091025;28;20035;-76
2022/03/19 09:07:04;;;;;;;10.07;3.00;;;;;;;;;;5057192;28;20104;-75
2022/03/19 09:09:31;;;;;;;9.90;2.70;;;;;;;;;;5069741;28;20045;-76
2022/03/19 09:11:57;;;;;;;10.80;3.15;;;;;;;;;;5088948;28;20028;-81
2022/03/19 09:14:24;;;;;;;13.38;3.10;;;;;;;;;;5079851;28;20142;-75
2022/03/19 09:16:50;;;;;;;12.88;3.28;;;;;;;;;;5088852;28;20380;-76
2022/03/19 09:19:16;;;;;;;12.13;3.30;;;;;;;;;;5090278;28;20028;-75
2022/03/19 09:21:43;;;;;;;11.38;3.05;;;;;;;;;;5088910;28;20119;-75
2022/03/19 09:24:10;;;;;;;9.98;2.75;;;;;;;;;;5072126;28;20051;-76
2022/03/19 09:26:36;;;;;;;8.50;2.30;;;;;;;;;;5074404;28;20032;-76
2022/03/19 09:29:03;;;;;;;11.35;2.65;;;;;;;;;;5087743;28;20036;-75
2022/03/19 09:31:30;;;;;;;10.40;3.13;;;;;;;;;;5087296;28;20389;-76
2022/03/19 09:33:56;;;;;;;8.75;2.45;;;;;;;;;;5089106;28;20036;-77
2022/03/19 09:36:23;;;;;;;7.00;2.15;;;;;;;;;;5088386;28;20036;-75
2022/03/19 09:38:49;;;;;;;6.40;2.45;;;;;;;;;;5070002;28;20043;-73
2022/03/19 09:41:15;;;;;;;7.20;2.25;;;;;;;;;;5080777;28;20435;-74
2022/03/19 09:43:42;;;;;;;11.45;2.40;;;;;;;;;;5089536;28;20067;-75
2022/03/19 09:46:08;;;;;;;8.63;2.30;;;;;;;;;;5087618;28;20039;-74
2022/03/19 09:48:34;;;;;;;9.27;2.53;;;;;;;;;;5087262;28;20044;-77
2022/03/19 09:51:01;;;;;;;8.35;2.28;;;;;;;;;;5087030;28;20532;-77
2022/03/19 09:53:28;;;;;;;7.88;2.10;;;;;;;;;;5070327;28;20044;-74
2022/03/19 09:55:57;;;;;;;10.88;2.13;;;;;;;;;;5086830;28;20089;-74
2022/03/19 09:58:24;;;;;;;6.65;2.08;;;;;;;;;;5083543;28;20048;-74
2022/03/19 10:00:50;;;;;;;5.88;1.73;;;;;;;;;;5009423;28;20460;-74
2022/03/19 10:03:22;;;;;;;8.80;2.20;;;;;;;;;;4993736;28;22199;-75
2022/03/19 10:08:36;;;;;;;8.70;1.73;;;;;;;;;;5007749;28;20052;-75
2022/03/19 10:11:03;;;;;;;8.50;2.28;;;;;;;;;;5027063;28;20041;-74
2022/03/19 10:13:29;;;;;;;9.68;2.78;;;;;;;;;;4992697;28;20034;-75
2022/03/19 10:15:55;;;;;;;7.20;1.90;;;;;;;;;;4993491;28;20557;-75
2022/03/19 10:18:28;;;;;;;8.45;2.25;;;;;;;;;;4993182;28;20041;-74
2022/03/19 10:20:54;;;;;;;7.85;2.35;;;;;;;;;;5009807;28;20046;-74
2022/03/19 10:23:33;;;;;;;4.22;1.60;;;;;;;;;;5027276;28;20044;-73
2022/03/19 10:25:59;;;;;;;5.28;1.83;;;;;;;;;;4993205;28;20490;-74
2022/03/19 10:28:30;;;;;;;7.22;2.08;;;;;;;;;;5009611;28;20045;-75
2022/03/19 10:30:56;;;;;;;7.68;1.92;;;;;;;;;;5024624;28;20033;-75
2022/03/19 10:33:27;;;;;;;7.78;2.00;;;;;;;;;;5009109;28;20045;-75
2022/03/19 10:36:05;;;;;;;8.07;2.20;;;;;;;;;;5009688;28;20398;-76
2022/03/19 10:38:39;;;;;;;7.93;2.25;;;;;;;;;;5008660;28;20117;-75
2022/03/19 10:41:05;;;;;;;7.93;2.15;;;;;;;;;;5026815;28;20091;-75
2022/03/19 10:43:33;;;;;;;8.85;2.15;;;;;;;;;;5008980;28;20048;-80
2022/03/19 10:45:59;;;;;;;6.82;1.92;;;;;;;;;;5008758;28;20048;-74
2022/03/19 10:48:26;;;;;;;6.00;2.22;;;;;;;;;;5026567;28;20170;-75
2022/03/19 10:50:53;;;;;;;6.28;2.13;;;;;;;;;;5001472;28;20100;-75
2022/03/19 10:53:20;;;;;;;5.30;2.17;;;;;;;;;;5008566;28;20073;-75
2022/03/19 10:55:46;;;;;;;6.22;2.28;;;;;;;;;;5026323;28;20048;-75
2022/03/19 10:58:13;;;;;;;4.75;2.05;;;;;;;;;;4992693;28;20375;-75
2022/03/19 11:00:39;;;;;;;8.43;2.05;;;;;;;;;;4992236;28;20052;-74
2022/03/19 11:03:12;;;;;;;6.57;1.70;;;;;;;;;;5026511;28;20045;-76
2022/03/19 11:05:39;;;;;;;4.65;1.42;;;;;;;;;;5008393;28;20567;-74
2022/03/19 11:08:08;;;;;;;9.50;1.73;;;;;;;;;;5026626;28;20073;-75
2022/03/19 11:10:38;;;;;;;5.53;1.77;;;;;;;;;;4992234;28;20498;-74
2022/03/19 11:13:05;;;;;;;6.85;1.45;;;;;;;;;;5008584;28;20049;-76
2022/03/19 11:15:33;;;;;;;5.93;1.90;;;;;;;;;;5007846;28;20037;-74
2022/03/19 11:18:01;;;;;;;6.00;1.70;;;;;;;;;;5008719;28;20037;-76
2022/03/19 11:20:27;;;;;;;4.18;1.45;;;;;;;;;;4995001;28;20074;-74
2022/03/19 11:22:55;;;;;;;5.70;1.45;;;;;;;;;;5017582;28;20038;-77
2022/03/19 11:25:27;;;;;;;4.63;1.58;;;;;;;;;;4992244;28;20116;-78
2022/03/19 11:28:05;;;;;;;4.82;1.50;;;;;;;;;;5026537;28;20054;-78
2022/03/19 11:30:34;;;;;;;4.13;1.30;;;;;;;;;;5026040;28;20034;-76
2022/03/19 11:33:01;;;;;;;4.78;1.50;;;;;;;;;;5008677;28;20091;-77
2022/03/19 11:35:28;;;;;;;6.75;1.75;;;;;;;;;;5008530;28;20047;-74
2022/03/19 11:38:03;;;;;;;4.90;1.33;;;;;;;;;;5005983;28;20037;-74
2022/03/19 11:40:32;;;;;;;5.32;1.60;;;;;;;;;;5026227;28;20029;-77
2022/03/19 11:43:01;;;;;;;4.75;1.30;;;;;;;;;;5027043;28;20390;-76
2022/03/19 11:45:27;;;;;;;4.97;1.48;;;;;;;;;;4992651;28;20052;-77
2022/03/19 11:47:53;;;;;;;5.15;1.40;;;;;;;;;;5006015;28;20090;-73
2022/03/19 11:50:23;;;;;;;4.43;1.40;;;;;;;;;;5008361;28;20053;-74
2022/03/19 11:52:49;;;;;;;4.97;1.55;;;;;;;;;;5025891;28;20044;-77
2022/03/19 11:55:20;;;;;;;3.97;1.30;;;;;;;;;;5008507;28;20037;-75
2022/03/19 11:57:46;;;;;;;3.83;1.40;;;;;;;;;;5026054;28;20478;-75
2022/03/19 12:00:16;;;;;;;6.47;1.33;;;;;;;;;;5007902;28;20429;-74
2022/03/19 12:03:02;;;;;;;5.00;1.30;;;;;;;;;;5009929;28;20050;-75
2022/03/19 12:05:28;;;;;;;2.50;0.90;;;;;;;;;;5011804;28;20045;-76
2022/03/19 12:08:04;;;;;;;6.60;1.40;;;;;;;;;;5029161;28;20046;-74
2022/03/19 12:10:38;;;;;;;4.60;1.08;;;;;;;;;;4993176;28;20105;-76
2022/03/19 12:13:21;;;;;;;3.53;1.45;;;;;;;;;;5011744;28;20060;-75
2022/03/19 12:15:47;;;;;;;4.10;1.20;;;;;;;;;;5011303;28;20086;-74
2022/03/19 12:18:27;;;;;;;4.25;0.80;;;;;;;;;;5011608;28;20057;-73
2022/03/19 12:20:58;;;;;;;5.68;1.30;;;;;;;;;;5011645;28;20041;-79
2022/03/19 12:23:26;;;;;;;4.18;1.10;;;;;;;;;;5029168;28;20073;-78
2022/03/19 12:26:01;;;;;;;5.10;1.27;;;;;;;;;;5011312;28;20049;-77
2022/03/19 12:28:27;;;;;;;3.22;1.00;;;;;;;;;;5011516;28;20045;-73
2022/03/19 12:30:53;;;;;;;4.03;1.08;;;;;;;;;;5011202;28;20048;-74
2022/03/19 12:33:29;;;;;;;7.07;1.70;;;;;;;;;;5010733;28;20052;-76
2022/03/19 12:35:58;;;;;;;5.03;1.52;;;;;;;;;;4995128;28;20475;-75
2022/03/19 12:38:32;;;;;;;4.60;1.95;;;;;;;;;;4995051;28;20037;-75
2022/03/19 12:43:44;;;;;;;4.60;1.17;;;;;;;;;;5010849;28;20041;-77
2022/03/19 12:46:10;;;;;;;4.40;1.50;;;;;;;;;;5028829;28;20037;-75
2022/03/19 12:48:39;;;;;;;4.40;1.08;;;;;;;;;;5010872;28;20398;-75
2022/03/19 12:51:06;;;;;;;7.10;1.50;;;;;;;;;;5010700;28;20098;-73
2022/03/19 12:53:37;;;;;;;5.25;1.70;;;;;;;;;;5010381;28;20049;-73
2022/03/19 12:56:10;;;;;;;10.77;1.92;;;;;;;;;;5011086;28;20048;-74
2022/03/19 12:58:37;;;;;;;5.38;1.55;;;;;;;;;;5010136;28;20505;-73
2022/03/19 13:01:06;;;;;;;4.68;1.45;;;;;;;;;;4994144;28;20562;-73
2022/03/19 13:03:33;;;;;;;5.15;1.30;;;;;;;;;;5028031;28;20045;-79
2022/03/19 13:05:59;;;;;;;6.28;1.60;;;;;;;;;;5010722;28;20506;-75
2022/03/19 13:08:25;;;;;;;5.65;1.40;;;;;;;;;;5010646;28;20420;-77
2022/03/19 13:10:53;;;;;;;5.95;1.45;;;;;;;;;;5010269;28;20041;-75
2022/03/19 13:13:19;;;;;;;3.95;1.50;;;;;;;;;;5027572;28;20736;-77
2022/03/19 13:15:49;;;;;;;6.07;1.48;;;;;;;;;;5028370;28;20044;-76
2022/03/19 13:18:31;;;;;;;3.90;1.60;;;;;;;;;;5010389;28;20093;-75
2022/03/19 13:21:05;;;;;;;4.10;1.33;;;;;;;;;;5010702;28;20050;-79
2022/03/19 13:23:32;;;;;;;5.50;1.60;;;;;;;;;;5009726;28;20069;-75
2022/03/19 13:25:59;;;;;;;5.88;2.20;;;;;;;;;;5027924;28;20222;-74
2022/03/19 13:28:25;;;;;;;5.68;1.90;;;;;;;;;;5027791;28;20053;-74
2022/03/19 13:30:51;;;;;;;5.03;1.60;;;;;;;;;;5009843;28;20504;-74
2022/03/19 13:33:18;;;;;;;7.22;1.70;;;;;;;;;;4993553;28;20375;-74
2022/03/19 13:35:47;;;;;;;5.68;1.50;;;;;;;;;;5009734;28;20045;-74
2022/03/19 13:38:18;;;;;;;3.47;1.33;;;;;;;;;;5010102;28;20490;-79
2022/03/19 13:40:45;;;;;;;3.42;1.30;;;;;;;;;;5009944;28;20045;-77
2022/03/19 13:43:12;;;;;;;3.17;1.48;;;;;;;;;;5026241;28;20042;-78
2022/03/19 13:45:38;;;;;;;2.92;1.30;;;;;;;;;;5027811;28;20092;-75
2022/03/19 13:48:08;;;;;;;4.45;1.20;;;;;;;;;;5027838;28;20042;-76
2022/03/19 13:50:36;;;;;;;4.45;1.30;;;;;;;;;;5009827;28;20407;-77
2022/03/19 13:53:03;;;;;;;3.55;0.90;;;;;;;;;;5009911;28;20073;-75
2022/03/19 13:55:29;;;;;;;2.90;0.75;;;;;;;;;;4993872;28;20033;-74
2022/03/19 13:57:57;;;;;;;3.63;1.20;;;;;;;;;;5009963;28;20071;-75
2022/03/19 14:00:27;;;;;;;2.92;1.05;;;;;;;;;;5027780;28;20490;-76
2022/03/19 14:03:05;;;;;;;2.88;0.90;;;;;;;;;;5010682;28;20064;-79
2022/03/19 14:05:32;;;;;;;3.08;1.30;;;;;;;;;;4993831;28;20506;-77
2022/03/19 14:08:00;;;;;;;3.42;0.90;;;;;;;;;;5009768;28;20475;-74
2022/03/19 14:10:32;;;;;;;6.70;1.73;;;;;;;;;;4993440;28;20482;-78
2022/03/19 14:13:05;;;;;;;3.15;1.17;;;;;;;;;;5009242;28;20045;-74
2022/03/19 14:15:39;;;;;;;5.32;1.10;;;;;;;;;;5026783;28;20105;-74
2022/03/19 14:18:06;;;;;;;3.13;0.90;;;;;;;;;;5009266;28;20128;-74
2022/03/19 14:20:32;;;;;;;2.53;1.00;;;;;;;;;;5008731;28;20047;-77
2022/03/19 14:22:58;;;;;;;2.75;1.02;;;;;;;;;;5009432;28;20037;-74
2022/03/19 14:25:24;;;;;;;4.15;1.10;;;;;;;;;;5008082;28;20382;-74
2022/03/19 14:27:50;;;;;;;3.90;1.13;;;;;;;;;;5008519;28;20042;-73
2022/03/19 14:30:16;;;;;;;5.25;1.20;;;;;;;;;;4993023;28;20116;-74
2022/03/19 14:32:43;;;;;;;5.38;1.10;;;;;;;;;;5009191;28;20056;-77
2022/03/19 14:35:37;;;;;;;4.97;1.20;;;;;;;;;;4993650;28;20478;-77
2022/03/19 14:38:03;;;;;;;6.28;1.55;;;;;;;;;;5027143;28;20040;-77
2022/03/19 14:40:29;;;;;;;5.55;1.20;;;;;;;;;;5009247;28;20033;-77
2022/03/19 14:42:55;;;;;;;8.82;1.63;;;;;;;;;;5009478;28;20509;-78
2022/03/19 14:45:21;;;;;;;3.55;1.27;;;;;;;;;;4993046;28;20150;-77
2022/03/19 14:47:47;;;;;;;3.85;1.30;;;;;;;;;;5008785;28;20048;-74
2022/03/19 14:50:14;;;;;;;6.82;1.42;;;;;;;;;;5009214;28;20125;-77
2022/03/19 14:52:40;;;;;;;4.55;1.20;;;;;;;;;;5008927;28;20623;-74
2022/03/19 14:55:06;;;;;;;5.63;1.30;;;;;;;;;;5027040;28;20037;-76